Time;durP1;ratioP1;P1;durP2;ratioP2;P2;SDS_P1;SDS_P2;PMS_P1;PMS_P2;Temp;Humidity;BMP_temperature;BMP_pressure;BME280_temperature;BME280_humidity;BME280_pressure;Samples;Min_cycle;Max_cycle;Signal;HPM_P1;HPM_P2
2021/12/14 00:01:53;;;;;;;14.90;9.10;;;8.60;99.90;;;;;;5026887;28;20834;-72
2021/12/14 00:04:31;;;;;;;12.27;8.20;;;8.70;99.90;;;;;;5024840;28;20479;-74
2021/12/14 00:06:58;;;;;;;21.90;10.60;;;8.60;99.90;;;;;;5027770;28;20463;-73
2021/12/14 00:09:33;;;;;;;18.40;10.20;;;8.60;99.90;;;;;;5025165;28;20482;-72
2021/12/14 00:12:43;;;;;;;18.63;10.77;;;8.60;99.90;;;;;;5009591;28;20513;-73
2021/12/14 00:15:13;;;;;;;23.00;12.07;;;8.60;99.90;;;;;;5009625;28;20494;-73
2021/12/14 00:17:43;;;;;;;23.20;13.10;;;8.60;99.90;;;;;;5022572;28;20884;-73
2021/12/14 00:20:15;;;;;;;24.30;13.60;;;8.70;99.90;;;;;;5026834;28;20596;-73
2021/12/14 00:25:23;;;;;;;20.60;11.87;;;8.60;99.90;;;;;;5029715;28;20537;-73
2021/12/14 00:27:49;;;;;;;19.20;11.03;;;8.70;99.90;;;;;;5005768;28;20486;-74
2021/12/14 00:30:15;;;;;;;21.80;13.13;;;8.60;99.90;;;;;;5009829;28;20459;-73
2021/12/14 00:32:41;;;;;;;23.00;12.30;;;8.70;99.90;;;;;;4989481;28;20471;-73
2021/12/14 00:35:12;;;;;;;22.10;12.90;;;8.70;99.90;;;;;;5009706;28;20471;-73
2021/12/14 00:37:45;;;;;;;21.17;12.27;;;8.60;99.90;;;;;;5009402;28;20319;-74
2021/12/14 00:40:31;;;;;;;16.87;11.00;;;8.70;99.90;;;;;;5025731;28;20962;-72
2021/12/14 00:42:59;;;;;;;15.60;10.00;;;8.70;99.90;;;;;;5023571;28;20935;-73
2021/12/14 00:45:28;;;;;;;14.67;8.97;;;8.60;99.90;;;;;;5025633;28;20998;-72
2021/12/14 00:47:55;;;;;;;16.70;10.30;;;8.60;99.90;;;;;;4999850;28;20543;-73
2021/12/14 00:50:23;;;;;;;18.73;9.90;;;8.60;99.90;;;;;;5009627;28;20455;-73
2021/12/14 00:52:50;;;;;;;14.57;9.50;;;8.60;99.90;;;;;;5026000;28;20455;-73
2021/12/14 00:55:31;;;;;;;14.47;8.60;;;8.60;99.90;;;;;;5004908;28;20478;-74
2021/12/14 00:57:57;;;;;;;17.00;8.17;;;8.60;99.90;;;;;;5021563;28;20255;-76
2021/12/14 01:00:28;;;;;;;16.10;9.80;;;8.60;99.90;;;;;;5009881;28;20462;-73
2021/12/14 01:02:54;;;;;;;13.13;8.10;;;8.60;99.90;;;;;;5009110;28;20889;-73
2021/12/14 01:05:25;;;;;;;13.63;9.13;;;8.60;99.90;;;;;;5022592;28;20451;-73
2021/12/14 01:07:51;;;;;;;13.53;9.07;;;8.70;99.90;;;;;;5019051;28;20213;-75
2021/12/14 01:10:43;;;;;;;14.40;9.07;;;8.60;99.90;;;;;;5004773;28;20971;-73
2021/12/14 01:13:10;;;;;;;13.90;9.00;;;8.60;99.90;;;;;;5024583;28;20470;-72
2021/12/14 01:19:02;;;;;;;13.60;9.53;;;8.60;99.90;;;;;;5027130;28;20455;-73
2021/12/14 01:24:19;;;;;;;16.20;10.37;;;8.60;99.90;;;;;;5036802;28;20459;-75
2021/12/14 01:26:45;;;;;;;14.60;9.73;;;8.60;99.90;;;;;;5032216;28;20843;-72
2021/12/14 01:29:11;;;;;;;12.77;8.93;;;8.60;99.90;;;;;;5030784;28;20454;-72
2021/12/14 01:31:41;;;;;;;11.53;8.30;;;8.70;99.90;;;;;;5030761;28;20560;-73
2021/12/14 01:34:13;;;;;;;17.57;9.90;;;8.70;99.90;;;;;;5011587;28;20443;-73
2021/12/14 01:36:44;;;;;;;15.60;9.63;;;8.60;99.90;;;;;;5010976;28;20475;-73
2021/12/14 01:39:47;;;;;;;15.20;9.83;;;8.70;99.90;;;;;;5011186;28;20499;-72
2021/12/14 01:42:16;;;;;;;15.17;9.10;;;8.60;99.90;;;;;;5012073;28;20510;-73
2021/12/14 01:44:49;;;;;;;12.97;9.30;;;8.60;99.90;;;;;;5025036;28;20460;-72
2021/12/14 01:47:32;;;;;;;15.00;9.60;;;8.60;99.90;;;;;;5013002;28;20982;-73
2021/12/14 01:50:21;;;;;;;15.77;10.00;;;8.60;99.90;;;;;;5028078;28;20517;-73
2021/12/14 01:53:15;;;;;;;12.90;9.10;;;8.60;99.90;;;;;;5013306;28;20521;-73
2021/12/14 01:55:50;;;;;;;16.93;9.17;;;8.70;99.90;;;;;;5008021;28;20476;-73
2021/12/14 01:58:17;;;;;;;13.07;8.50;;;8.60;99.90;;;;;;5012273;28;20486;-74
2021/12/14 02:00:56;;;;;;;15.00;9.97;;;8.60;99.90;;;;;;5007129;28;20451;-73
2021/12/14 02:03:33;;;;;;;14.77;9.23;;;8.70;99.90;;;;;;5012126;28;20467;-73
2021/12/14 02:05:59;;;;;;;13.00;9.07;;;8.60;99.90;;;;;;5008244;28;20454;-74
2021/12/14 02:08:30;;;;;;;17.00;9.80;;;8.60;99.90;;;;;;5029962;28;20542;-73
2021/12/14 02:10:59;;;;;;;13.60;9.13;;;8.60;99.90;;;;;;5023327;28;20491;-74
2021/12/14 02:13:29;;;;;;;16.30;9.83;;;8.60;99.90;;;;;;5011895;28;20482;-72
2021/12/14 02:15:55;;;;;;;13.47;8.50;;;8.60;99.90;;;;;;5008240;28;20490;-71
2021/12/14 02:18:26;;;;;;;15.33;9.80;;;8.60;99.90;;;;;;5011900;28;20521;-72
2021/12/14 02:20:58;;;;;;;13.17;10.07;;;8.60;99.90;;;;;;5006653;28;20451;-74
2021/12/14 02:23:25;;;;;;;15.43;9.80;;;8.60;99.90;;;;;;5027523;28;20459;-73
2021/12/14 02:25:53;;;;;;;14.37;10.03;;;8.60;99.90;;;;;;5006660;28;20474;-74
2021/12/14 02:28:21;;;;;;;14.37;9.07;;;8.60;99.90;;;;;;5028221;28;20458;-73
2021/12/14 02:30:53;;;;;;;14.70;10.57;;;8.60;99.90;;;;;;5009107;28;20447;-74
2021/12/14 02:33:25;;;;;;;13.83;10.07;;;8.60;99.90;;;;;;5007706;28;20510;-74
2021/12/14 02:35:52;;;;;;;13.43;10.83;;;8.60;99.90;;;;;;5005885;28;20468;-73
2021/12/14 02:38:21;;;;;;;13.43;9.57;;;8.60;99.90;;;;;;5008053;28;20448;-74
2021/12/14 02:41:01;;;;;;;12.40;8.83;;;8.60;99.90;;;;;;5011919;28;20490;-74
2021/12/14 02:43:48;;;;;;;19.70;10.03;;;8.60;99.90;;;;;;5012482;28;20468;-74
2021/12/14 02:46:27;;;;;;;14.70;9.10;;;8.60;99.90;;;;;;5007538;28;20989;-73
2021/12/14 02:48:58;;;;;;;15.30;9.90;;;8.60;99.90;;;;;;5011449;28;20581;-73
2021/12/14 02:51:29;;;;;;;14.50;9.73;;;8.60;99.90;;;;;;4992606;28;20483;-73
2021/12/14 02:54:11;;;;;;;15.20;9.73;;;8.60;99.90;;;;;;5027690;28;20467;-74
2021/12/14 02:56:39;;;;;;;12.13;9.13;;;8.60;99.90;;;;;;5009763;28;20471;-73
2021/12/14 02:59:13;;;;;;;14.50;10.10;;;8.50;99.90;;;;;;5011377;28;21001;-73
2021/12/14 03:01:41;;;;;;;14.00;9.33;;;8.50;99.90;;;;;;5027122;28;20459;-72
2021/12/14 03:04:11;;;;;;;18.30;10.50;;;8.50;99.90;;;;;;5010875;28;20475;-73
2021/12/14 03:06:47;;;;;;;16.53;9.97;;;8.60;99.90;;;;;;5007612;28;20455;-73
2021/12/14 03:09:37;;;;;;;13.17;9.87;;;8.50;99.90;;;;;;5011270;28;20466;-74
2021/12/14 03:12:09;;;;;;;14.17;10.87;;;8.60;99.90;;;;;;4974671;28;20522;-75
2021/12/14 03:14:36;;;;;;;17.87;12.17;;;8.50;99.90;;;;;;5003223;28;20491;-73
2021/12/14 03:17:02;;;;;;;17.27;10.67;;;8.60;99.90;;;;;;5006637;28;20451;-73
2021/12/14 03:19:28;;;;;;;16.50;9.93;;;8.60;99.90;;;;;;5012035;28;20612;-73
2021/12/14 03:21:54;;;;;;;15.93;9.50;;;8.50;99.90;;;;;;5012195;28;20539;-74
2021/12/14 03:24:21;;;;;;;12.10;9.30;;;8.50;99.90;;;;;;5010551;28;20220;-74
2021/12/14 03:26:51;;;;;;;14.07;9.57;;;8.50;99.90;;;;;;5014255;28;20220;-74
2021/12/14 03:29:23;;;;;;;17.47;9.73;;;8.50;99.90;;;;;;5028609;28;20470;-73
2021/12/14 03:31:51;;;;;;;14.57;8.97;;;8.50;99.90;;;;;;5023060;28;20513;-73
2021/12/14 03:34:33;;;;;;;17.23;10.37;;;8.50;99.90;;;;;;5010017;28;20458;-72
2021/12/14 03:37:08;;;;;;;15.13;9.50;;;8.60;99.90;;;;;;5026562;28;20447;-73
2021/12/14 03:39:45;;;;;;;14.10;8.70;;;8.60;99.90;;;;;;5010985;28;20842;-73
2021/12/14 03:42:18;;;;;;;18.33;9.57;;;8.50;99.90;;;;;;5009761;28;20459;-72
2021/12/14 03:44:49;;;;;;;13.17;8.90;;;8.50;99.90;;;;;;5006026;28;20463;-75
2021/12/14 03:47:29;;;;;;;18.40;10.57;;;8.50;99.90;;;;;;5010512;28;20458;-74
2021/12/14 03:50:03;;;;;;;14.40;9.93;;;8.50;99.90;;;;;;5023712;28;20455;-73
2021/12/14 03:52:33;;;;;;;12.87;8.97;;;8.50;99.90;;;;;;5009327;28;20457;-73
2021/12/14 03:55:03;;;;;;;18.57;9.17;;;8.50;99.90;;;;;;5006433;28;20525;-74
2021/12/14 03:57:29;;;;;;;16.73;9.50;;;8.50;99.90;;;;;;5009986;28;20459;-72
2021/12/14 03:59:57;;;;;;;17.20;9.77;;;8.50;99.90;;;;;;5005954;28;20971;-73
2021/12/14 04:02:23;;;;;;;13.90;8.53;;;8.50;99.90;;;;;;5025926;28;20451;-73
2021/12/14 04:05:03;;;;;;;13.87;8.87;;;8.50;99.90;;;;;;5010217;28;20221;-75
2021/12/14 04:07:34;;;;;;;13.50;8.63;;;8.50;99.90;;;;;;5009956;28;20550;-74
2021/12/14 04:10:32;;;;;;;13.70;8.50;;;8.50;99.90;;;;;;5006427;28;20467;-73
2021/12/14 04:13:00;;;;;;;13.40;8.27;;;8.50;99.90;;;;;;5006273;28;20466;-73
2021/12/14 04:15:26;;;;;;;12.03;8.00;;;8.50;99.90;;;;;;5008445;28;20463;-72
2021/12/14 04:17:52;;;;;;;17.23;9.57;;;8.50;99.90;;;;;;5026592;28;20466;-74
2021/12/14 04:20:32;;;;;;;16.47;9.13;;;8.50;99.90;;;;;;5005697;28;20455;-74
2021/12/14 04:23:00;;;;;;;15.87;9.87;;;8.50;99.90;;;;;;5007869;28;20546;-73
2021/12/14 04:25:34;;;;;;;15.80;9.57;;;8.50;99.90;;;;;;5015826;28;20455;-73
2021/12/14 04:28:06;;;;;;;14.57;8.90;;;8.50;99.90;;;;;;5009769;28;20462;-73
2021/12/14 04:30:33;;;;;;;13.13;9.70;;;8.50;99.90;;;;;;5024218;28;20459;-74
2021/12/14 04:33:05;;;;;;;16.40;10.13;;;8.50;99.90;;;;;;5026230;28;20550;-73
2021/12/14 04:35:37;;;;;;;16.03;9.90;;;8.50;99.90;;;;;;5023375;28;20878;-75
2021/12/14 04:38:12;;;;;;;18.13;10.00;;;8.50;99.90;;;;;;5009258;28;20517;-73
2021/12/14 04:51:57;;;;;;;24.43;10.93;;;8.50;99.90;;;;;;5009956;28;20559;-76
2021/12/14 04:54:44;;;;;;;17.00;10.23;;;8.50;99.90;;;;;;5025174;28;20571;-69
2021/12/14 04:57:22;;;;;;;18.47;9.83;;;8.50;99.90;;;;;;5006835;28;20546;-76
2021/12/14 04:59:50;;;;;;;16.73;9.47;;;8.50;99.90;;;;;;4993855;28;20444;-73
2021/12/14 05:02:24;;;;;;;20.10;11.17;;;8.50;99.90;;;;;;4992017;28;20459;-73
2021/12/14 05:05:23;;;;;;;13.60;8.80;;;8.50;99.90;;;;;;5013729;28;20458;-73
2021/12/14 05:10:53;;;;;;;15.43;9.17;;;8.50;99.90;;;;;;5024490;28;20455;-73
2021/12/14 05:13:29;;;;;;;16.87;10.00;;;8.50;99.90;;;;;;4997021;28;20478;-73
2021/12/14 05:15:55;;;;;;;15.53;9.80;;;8.50;99.90;;;;;;5010626;28;20479;-74
2021/12/14 05:18:22;;;;;;;15.20;9.03;;;8.50;99.90;;;;;;5013341;28;20448;-74
2021/12/14 05:20:50;;;;;;;16.80;9.07;;;8.50;99.90;;;;;;5008375;28;20483;-73
2021/12/14 05:23:21;;;;;;;14.87;9.60;;;8.40;99.90;;;;;;5009560;28;20548;-73
2021/12/14 05:25:47;;;;;;;15.47;9.57;;;8.40;99.90;;;;;;4997465;28;20466;-70
2021/12/14 05:28:16;;;;;;;16.27;8.40;;;8.40;99.90;;;;;;5013039;28;20994;-73
2021/12/14 05:30:46;;;;;;;15.30;8.70;;;8.40;99.90;;;;;;5007729;28;20558;-72
2021/12/14 05:33:37;;;;;;;18.80;10.10;;;8.40;99.90;;;;;;5012740;28;20494;-74
2021/12/14 05:36:24;;;;;;;12.50;7.83;;;8.40;99.90;;;;;;5009364;28;20471;-73
2021/12/14 05:44:26;;;;;;;13.37;7.93;;;8.40;99.90;;;;;;5026114;28;20566;-72
2021/12/14 05:46:56;;;;;;;13.23;7.97;;;8.40;99.90;;;;;;5007860;28;21002;-73
2021/12/14 05:49:44;;;;;;;11.50;7.40;;;8.40;99.90;;;;;;5012111;28;20355;-74
2021/12/14 05:52:18;;;;;;;12.97;7.87;;;8.40;99.90;;;;;;5021612;28;20451;-74
2021/12/14 05:54:44;;;;;;;13.10;8.27;;;8.40;99.90;;;;;;5011967;28;20467;-71
2021/12/14 05:57:15;;;;;;;16.40;8.97;;;8.40;99.90;;;;;;5007155;28;20447;-73
2021/12/14 05:59:41;;;;;;;21.40;8.97;;;8.40;99.90;;;;;;5012325;28;20450;-74
2021/12/14 06:02:08;;;;;;;15.40;10.53;;;8.40;99.90;;;;;;5006976;28;20452;-72
2021/12/14 06:04:46;;;;;;;18.30;9.33;;;8.40;99.90;;;;;;4996092;28;20224;-73
2021/12/14 06:07:13;;;;;;;20.30;9.00;;;8.40;99.90;;;;;;5008194;28;20459;-72
2021/12/14 06:09:42;;;;;;;14.30;7.87;;;8.40;99.90;;;;;;5012659;28;20455;-73
2021/12/14 06:12:25;;;;;;;12.40;7.10;;;8.40;99.90;;;;;;4985550;28;20455;-72
2021/12/14 06:14:56;;;;;;;12.93;7.50;;;8.40;99.90;;;;;;5005110;28;21051;-72
2021/12/14 06:17:26;;;;;;;13.13;7.00;;;8.40;99.90;;;;;;5020731;28;20494;-74
2021/12/14 06:20:05;;;;;;;11.50;7.53;;;8.40;99.90;;;;;;5011993;28;20542;-74
2021/12/14 06:22:31;;;;;;;10.87;7.13;;;8.40;99.90;;;;;;5020213;28;20444;-73
2021/12/14 06:25:00;;;;;;;11.83;7.17;;;8.40;99.90;;;;;;5013173;28;20453;-73
2021/12/14 06:27:31;;;;;;;12.60;7.70;;;8.40;99.90;;;;;;5007286;28;20463;-73
2021/12/14 06:30:06;;;;;;;11.13;7.33;;;8.40;99.90;;;;;;5000453;28;20460;-73
2021/12/14 06:32:55;;;;;;;10.33;7.30;;;8.50;99.90;;;;;;5005451;28;20479;-72
2021/12/14 06:35:35;;;;;;;12.93;7.40;;;8.40;99.90;;;;;;5007754;28;20471;-73
2021/12/14 06:38:29;;;;;;;15.90;9.30;;;8.40;99.90;;;;;;4989807;28;20948;-73
2021/12/14 06:41:20;;;;;;;13.97;9.03;;;8.40;99.90;;;;;;4991680;28;20452;-74
2021/12/14 06:43:58;;;;;;;11.80;8.30;;;8.40;99.90;;;;;;4991533;28;20931;-74
2021/12/14 06:46:33;;;;;;;14.27;9.43;;;8.40;99.90;;;;;;4993517;28;20467;-73
2021/12/14 06:49:09;;;;;;;13.70;8.57;;;8.50;99.90;;;;;;4994481;28;20455;-74
2021/12/14 06:51:47;;;;;;;12.83;8.73;;;8.40;99.90;;;;;;5007553;28;20457;-74
2021/12/14 06:54:29;;;;;;;13.13;8.07;;;8.40;99.90;;;;;;5022143;28;20456;-74
2021/12/14 06:57:13;;;;;;;11.70;8.13;;;8.40;99.90;;;;;;5027267;28;20541;-73
2021/12/14 06:59:43;;;;;;;13.37;7.87;;;8.40;99.90;;;;;;5009083;28;20455;-73
2021/12/14 07:02:11;;;;;;;14.10;8.37;;;8.40;99.90;;;;;;5025230;28;20478;-73
2021/12/14 07:04:57;;;;;;;13.03;8.20;;;8.40;99.90;;;;;;5009386;28;20236;-74
2021/12/14 07:07:27;;;;;;;14.00;8.63;;;8.40;99.90;;;;;;5008780;28;20978;-73
2021/12/14 07:09:58;;;;;;;18.50;10.60;;;8.40;99.90;;;;;;5025201;28;20467;-74
2021/12/14 07:12:32;;;;;;;14.10;8.50;;;8.40;99.90;;;;;;5025139;28;20478;-72
2021/12/14 07:15:00;;;;;;;12.43;8.17;;;8.40;99.90;;;;;;5007748;28;20475;-73
2021/12/14 07:17:42;;;;;;;12.80;7.77;;;8.40;99.90;;;;;;5024650;28;20455;-74
2021/12/14 07:20:13;;;;;;;14.17;8.50;;;8.40;99.90;;;;;;5024242;28;20450;-76
2021/12/14 07:22:46;;;;;;;14.63;8.90;;;8.40;99.90;;;;;;5026026;28;20519;-74
2021/12/14 07:25:22;;;;;;;11.30;8.23;;;8.50;99.90;;;;;;5002939;28;20498;-72
2021/12/14 07:28:07;;;;;;;12.57;8.20;;;8.40;99.90;;;;;;5004201;28;20962;-73
2021/12/14 07:30:35;;;;;;;13.23;8.43;;;8.50;99.90;;;;;;5026934;28;20830;-72
2021/12/14 07:33:28;;;;;;;17.07;10.03;;;8.50;99.90;;;;;;5022393;28;20459;-73
2021/12/14 07:36:04;;;;;;;14.57;10.07;;;8.50;99.90;;;;;;5023298;28;20486;-74
2021/12/14 07:38:46;;;;;;;15.20;10.17;;;8.50;99.90;;;;;;5006113;28;20849;-73
2021/12/14 07:41:24;;;;;;;14.00;8.97;;;8.50;99.90;;;;;;5003236;28;20804;-74
2021/12/14 07:44:14;;;;;;;14.67;8.60;;;8.50;99.90;;;;;;5006106;28;20467;-77
2021/12/14 07:46:49;;;;;;;12.07;7.90;;;8.50;99.90;;;;;;5025765;28;20622;-76
2021/12/14 07:49:40;;;;;;;16.23;8.63;;;8.50;99.90;;;;;;5004116;28;20461;-73
2021/12/14 07:52:09;;;;;;;18.43;9.73;;;8.50;99.90;;;;;;5024415;28;20521;-77
2021/12/14 07:54:45;;;;;;;15.40;9.90;;;8.50;99.90;;;;;;5024956;28;20475;-74
2021/12/14 07:57:25;;;;;;;17.70;9.77;;;8.40;99.90;;;;;;5024967;28;20454;-74
2021/12/14 07:59:57;;;;;;;17.80;9.73;;;8.50;99.90;;;;;;5042464;28;20515;-73
2021/12/14 08:02:23;;;;;;;16.33;9.70;;;8.50;99.90;;;;;;5025159;28;20826;-74
2021/12/14 08:04:50;;;;;;;17.07;10.53;;;8.50;99.90;;;;;;5032560;28;20497;-72
2021/12/14 08:07:32;;;;;;;17.40;10.87;;;8.50;99.90;;;;;;5009999;28;20208;-74
2021/12/14 08:10:14;;;;;;;17.30;9.47;;;8.50;99.90;;;;;;5026084;28;20889;-73
2021/12/14 08:12:45;;;;;;;13.20;8.67;;;8.50;99.90;;;;;;5001283;28;20422;-73
2021/12/14 08:15:31;;;;;;;15.27;8.83;;;8.50;99.90;;;;;;5025486;28;20479;-73
2021/12/14 08:18:20;;;;;;;13.73;9.13;;;8.50;99.90;;;;;;5014471;28;20455;-73
2021/12/14 08:20:57;;;;;;;15.73;9.20;;;8.50;99.90;;;;;;5027789;28;20573;-77
2021/12/14 08:23:38;;;;;;;13.60;8.77;;;8.50;99.90;;;;;;5025544;28;20481;-71
2021/12/14 08:26:08;;;;;;;16.57;10.33;;;8.50;99.90;;;;;;5023170;28;20519;-74
2021/12/14 08:28:45;;;;;;;14.83;9.87;;;8.50;99.90;;;;;;5007732;28;20455;-73
2021/12/14 08:31:11;;;;;;;17.00;9.30;;;8.50;99.90;;;;;;5014422;28;20466;-73
2021/12/14 08:33:37;;;;;;;20.13;10.30;;;8.50;99.90;;;;;;5024567;28;20463;-73
2021/12/14 08:36:06;;;;;;;13.87;8.70;;;8.50;99.90;;;;;;5011984;28;20641;-73
2021/12/14 08:38:34;;;;;;;16.20;9.07;;;8.50;99.90;;;;;;5026303;28;20290;-73
2021/12/14 08:41:13;;;;;;;14.57;9.07;;;8.40;99.90;;;;;;5026547;28;20459;-74
2021/12/14 08:43:47;;;;;;;12.67;8.37;;;8.40;99.90;;;;;;5026097;28;20465;-73
2021/12/14 08:46:20;;;;;;;13.97;8.70;;;8.40;99.90;;;;;;5010796;28;20580;-74
2021/12/14 08:48:52;;;;;;;13.73;8.90;;;8.40;99.90;;;;;;5004281;28;21010;-73
2021/12/14 08:51:26;;;;;;;16.60;8.97;;;8.40;99.90;;;;;;5011305;28;20459;-73
2021/12/14 08:54:16;;;;;;;14.50;8.53;;;8.40;99.90;;;;;;5025890;28;20474;-74
2021/12/14 08:56:51;;;;;;;14.20;8.57;;;8.40;99.90;;;;;;5010596;28;20491;-73
2021/12/14 08:59:17;;;;;;;13.80;8.00;;;8.40;99.90;;;;;;5023087;28;20459;-75
2021/12/14 09:01:44;;;;;;;13.80;9.20;;;8.40;99.90;;;;;;5010958;28;20466;-72
2021/12/14 09:04:21;;;;;;;15.50;8.23;;;8.40;99.90;;;;;;5006424;28;20285;-74
2021/12/14 09:06:51;;;;;;;14.30;6.90;;;8.40;99.90;;;;;;5028880;28;20462;-73
2021/12/14 09:09:19;;;;;;;19.40;11.80;;;8.40;99.90;;;;;;5008986;28;20589;-73
2021/12/14 09:11:47;;;;;;;14.83;8.90;;;8.40;99.90;;;;;;5011643;28;20489;-73
2021/12/14 09:14:15;;;;;;;13.30;7.80;;;8.40;99.90;;;;;;5009235;28;20471;-73
2021/12/14 09:16:44;;;;;;;13.23;8.47;;;8.40;99.90;;;;;;5012654;28;20585;-72
2021/12/14 09:19:18;;;;;;;14.17;8.43;;;8.40;99.90;;;;;;5024088;28;20461;-76
2021/12/14 09:21:47;;;;;;;12.73;8.07;;;8.40;99.90;;;;;;5010091;28;20493;-73
2021/12/14 09:24:20;;;;;;;12.00;7.57;;;8.40;99.90;;;;;;5011679;28;21018;-74
2021/12/14 09:26:49;;;;;;;12.33;7.60;;;8.40;99.90;;;;;;5006543;28;20479;-74
2021/12/14 09:29:18;;;;;;;11.40;7.30;;;8.50;99.90;;;;;;5002932;28;20465;-73
2021/12/14 09:31:49;;;;;;;12.40;7.73;;;8.50;99.90;;;;;;5029177;28;20479;-73
2021/12/14 09:34:22;;;;;;;18.43;8.27;;;8.50;99.90;;;;;;5008675;28;20460;-73
2021/12/14 09:36:51;;;;;;;10.70;6.73;;;8.50;99.90;;;;;;5012283;28;20471;-73
2021/12/14 09:39:21;;;;;;;11.47;7.73;;;8.50;99.90;;;;;;5008172;28;20546;-74
2021/12/14 09:41:53;;;;;;;12.23;7.83;;;8.50;99.90;;;;;;5011258;28;20455;-73
2021/12/14 09:44:24;;;;;;;17.47;9.40;;;8.50;99.90;;;;;;5007483;28;20459;-74
2021/12/14 09:46:51;;;;;;;13.87;7.63;;;8.50;99.90;;;;;;5028502;28;20443;-72
2021/12/14 09:49:18;;;;;;;10.10;7.00;;;8.50;99.90;;;;;;5024948;28;20974;-73
2021/12/14 09:51:50;;;;;;;10.83;6.60;;;8.50;99.90;;;;;;5026560;28;20463;-74
2021/12/14 09:54:20;;;;;;;13.97;8.30;;;8.50;99.90;;;;;;5025417;28;20517;-74
2021/12/14 09:56:58;;;;;;;13.47;8.07;;;8.50;99.90;;;;;;4997622;28;20464;-73
2021/12/14 09:59:24;;;;;;;11.47;7.23;;;8.50;99.90;;;;;;5017790;28;20474;-73
2021/12/14 10:02:18;;;;;;;16.80;8.20;;;8.50;99.90;;;;;;5026529;28;20462;-74
2021/12/14 10:04:53;;;;;;;11.67;6.67;;;8.50;99.90;;;;;;5024112;28;20452;-72
2021/12/14 10:07:19;;;;;;;12.70;7.80;;;8.50;99.90;;;;;;5011854;28;20546;-74
2021/12/14 10:09:48;;;;;;;14.67;8.00;;;8.50;99.90;;;;;;5007522;28;20459;-73
2021/12/14 10:15:24;;;;;;;12.17;6.87;;;8.60;99.90;;;;;;5002453;28;20467;-73
2021/12/14 10:17:51;;;;;;;10.70;6.90;;;8.60;99.90;;;;;;4999298;28;20533;-73
2021/12/14 10:20:22;;;;;;;15.83;8.60;;;8.60;99.90;;;;;;5003953;28;20468;-74
2021/12/14 10:22:51;;;;;;;11.30;8.20;;;8.60;99.90;;;;;;5001534;28;20826;-73
2021/12/14 10:25:20;;;;;;;12.80;8.30;;;8.60;99.90;;;;;;5005333;28;20460;-76
2021/12/14 10:27:47;;;;;;;13.07;8.43;;;8.60;99.90;;;;;;5000516;28;20459;-73
2021/12/14 10:30:27;;;;;;;14.67;8.60;;;8.60;99.90;;;;;;5008298;28;20455;-73
2021/12/14 10:32:52;;;;;;;17.30;9.23;;;8.60;99.90;;;;;;5000523;28;20467;-74
2021/12/14 10:35:23;;;;;;;14.10;8.63;;;8.60;99.90;;;;;;5012174;28;20491;-73
2021/12/14 10:38:00;;;;;;;12.17;7.50;;;8.50;99.90;;;;;;5009676;28;20223;-73
2021/12/14 10:43:19;;;;;;;15.00;8.30;;;8.50;99.90;;;;;;5027768;28;20521;-74
2021/12/14 10:46:04;;;;;;;11.97;7.83;;;8.60;99.90;;;;;;5025645;28;20461;-73
2021/12/14 10:48:34;;;;;;;13.33;8.00;;;8.60;99.90;;;;;;5027105;28;20458;-73
2021/12/14 10:51:04;;;;;;;14.30;7.63;;;8.60;99.90;;;;;;5006478;28;20458;-72
2021/12/14 10:53:30;;;;;;;13.80;7.80;;;8.60;99.90;;;;;;5026983;28;20490;-75
2021/12/14 10:56:01;;;;;;;13.30;7.93;;;8.60;99.90;;;;;;5019232;28;21026;-76
2021/12/14 10:58:29;;;;;;;15.97;7.80;;;8.60;99.90;;;;;;5025740;28;20463;-73
2021/12/14 11:01:30;;;;;;;14.70;7.50;;;8.60;99.90;;;;;;5008592;28;20470;-73
2021/12/14 11:04:00;;;;;;;14.77;7.50;;;8.60;99.90;;;;;;4976800;28;20967;-73
2021/12/14 11:06:31;;;;;;;13.97;7.70;;;8.60;99.90;;;;;;4985811;28;20518;-73
2021/12/14 11:11:59;;;;;;;14.53;8.70;;;8.60;99.90;;;;;;5010705;28;20917;-73
2021/12/14 11:14:34;;;;;;;24.17;14.70;;;8.60;99.90;;;;;;5021820;28;20479;-71
2021/12/14 11:19:56;;;;;;;16.40;11.60;;;8.60;99.90;;;;;;5004292;28;20463;-73
2021/12/14 11:22:28;;;;;;;15.23;9.23;;;8.70;99.90;;;;;;5010362;28;20455;-73
2021/12/14 11:25:05;;;;;;;19.13;10.93;;;8.70;99.90;;;;;;5031015;28;20963;-76
2021/12/14 11:27:52;;;;;;;18.83;10.87;;;8.70;99.90;;;;;;5026215;28;20465;-70
2021/12/14 11:30:23;;;;;;;16.50;10.93;;;8.70;99.90;;;;;;5005147;28;20485;-73
2021/12/14 11:33:17;;;;;;;15.67;8.73;;;8.70;99.90;;;;;;5002290;28;20805;-73
2021/12/14 11:36:04;;;;;;;21.43;11.17;;;8.70;99.90;;;;;;5004779;28;20471;-73
2021/12/14 11:38:52;;;;;;;28.30;15.07;;;8.70;99.90;;;;;;5006659;28;20494;-73
2021/12/14 11:41:24;;;;;;;42.83;21.53;;;8.70;99.90;;;;;;5007142;28;20470;-74
2021/12/14 11:43:55;;;;;;;26.70;15.07;;;8.70;99.90;;;;;;5025065;28;20455;-72
2021/12/14 11:46:21;;;;;;;26.57;14.50;;;8.70;99.90;;;;;;5023951;28;20459;-74
2021/12/14 11:48:47;;;;;;;23.40;13.40;;;8.70;99.90;;;;;;5008134;28;20459;-73
2021/12/14 11:51:13;;;;;;;24.57;13.50;;;8.70;99.90;;;;;;5003311;28;20526;-73
2021/12/14 11:53:48;;;;;;;19.73;12.60;;;8.70;99.90;;;;;;5024428;28;20216;-73
2021/12/14 11:56:16;;;;;;;16.67;11.40;;;8.70;99.90;;;;;;4991450;28;20964;-75
2021/12/14 11:58:50;;;;;;;12.63;9.07;;;8.70;99.90;;;;;;4992147;28;20880;-73
2021/12/14 12:01:22;;;;;;;18.37;10.60;;;8.70;99.90;;;;;;5006413;28;20616;-72
2021/12/14 12:04:12;;;;;;;19.13;11.97;;;8.70;99.90;;;;;;5017976;28;20521;-73
2021/12/14 12:09:28;;;;;;;14.50;10.37;;;8.70;99.90;;;;;;5024056;28;20459;-74
2021/12/14 12:09:40;;;;;;;21.40;14.57;;;8.70;99.90;;;;;;5008587;28;20467;-75
2021/12/14 12:12:32;;;;;;;36.03;18.97;;;8.70;99.90;;;;;;5019815;28;20538;-72
2021/12/14 12:15:01;;;;;;;80.83;33.90;;;8.70;99.90;;;;;;5001643;28;20464;-72
2021/12/14 12:17:40;;;;;;;53.53;29.20;;;8.70;99.90;;;;;;5007095;28;20999;-73
2021/12/14 12:20:17;;;;;;;32.53;19.03;;;8.80;99.90;;;;;;5005875;28;20467;-74
2021/12/14 12:22:51;;;;;;;39.17;19.97;;;8.80;99.90;;;;;;5009813;28;20467;-73
2021/12/14 12:25:19;;;;;;;46.20;24.27;;;8.80;99.90;;;;;;5013693;28;20472;-73
2021/12/14 12:27:54;;;;;;;39.83;19.73;;;8.80;99.90;;;;;;5025270;28;21031;-74
2021/12/14 12:30:38;;;;;;;24.40;14.43;;;8.80;99.90;;;;;;5006603;28;20455;-73
2021/12/14 12:33:12;;;;;;;21.80;12.27;;;8.80;99.90;;;;;;5006466;28;20467;-72
2021/12/14 12:35:43;;;;;;;16.97;10.43;;;8.80;99.90;;;;;;5021279;28;20512;-74
2021/12/14 12:38:21;;;;;;;15.80;9.37;;;8.80;99.90;;;;;;5003088;28;20468;-73
2021/12/14 12:40:52;;;;;;;16.07;9.10;;;8.80;99.90;;;;;;5016582;28;20459;-73
2021/12/14 12:43:45;;;;;;;14.60;8.13;;;8.80;99.90;;;;;;5005995;28;20474;-75
2021/12/14 12:46:16;;;;;;;7.90;6.13;;;8.90;99.90;;;;;;5002084;28;20492;-75
2021/12/14 12:48:42;;;;;;;10.90;6.57;;;8.80;99.90;;;;;;4990394;28;20558;-73
2021/12/14 12:51:08;;;;;;;10.93;7.00;;;8.80;99.90;;;;;;5022026;28;20546;-76
2021/12/14 12:53:33;;;;;;;12.17;7.00;;;8.90;99.90;;;;;;5004967;28;20728;-74
2021/12/14 12:56:13;;;;;;;10.67;6.23;;;8.90;99.90;;;;;;5018477;28;20502;-74
2021/12/14 12:58:45;;;;;;;10.10;5.40;;;8.90;99.90;;;;;;5031355;28;20224;-73
2021/12/14 13:01:11;;;;;;;12.43;6.53;;;8.90;99.90;;;;;;5011171;28;20498;-72
2021/12/14 13:03:42;;;;;;;9.90;5.30;;;8.90;99.90;;;;;;5005526;28;20549;-74
2021/12/14 13:06:16;;;;;;;8.00;4.83;;;8.90;99.90;;;;;;5007594;28;20466;-73
2021/12/14 13:08:48;;;;;;;9.10;5.00;;;8.80;99.90;;;;;;5026798;28;20463;-73
2021/12/14 13:11:16;;;;;;;9.50;5.00;;;8.90;99.90;;;;;;4986640;28;20510;-74
2021/12/14 13:13:45;;;;;;;7.20;4.37;;;8.90;99.90;;;;;;5007358;28;20532;-73
2021/12/14 13:16:15;;;;;;;11.37;4.80;;;8.80;99.90;;;;;;5015881;28;20481;-73
2021/12/14 13:18:59;;;;;;;7.00;3.50;;;8.90;99.90;;;;;;5009063;28;20491;-73
2021/12/14 13:21:49;;;;;;;8.40;3.47;;;8.90;99.90;;;;;;5025990;28;20477;-74
2021/12/14 13:24:35;;;;;;;6.90;3.77;;;8.90;99.90;;;;;;5023487;28;20494;-72
2021/12/14 13:27:14;;;;;;;6.43;3.97;;;8.90;99.90;;;;;;4997233;28;20455;-74
2021/12/14 13:29:55;;;;;;;5.47;3.20;;;8.90;99.90;;;;;;5023013;28;20474;-75
2021/12/14 13:32:27;;;;;;;7.17;4.00;;;8.80;99.90;;;;;;5025180;28;20455;-73
2021/12/14 13:34:57;;;;;;;9.27;3.67;;;8.90;99.90;;;;;;5009578;28;20519;-74
2021/12/14 13:37:26;;;;;;;6.33;3.80;;;8.90;99.90;;;;;;5025831;28;20459;-75
2021/12/14 13:39:53;;;;;;;4.90;3.50;;;8.80;99.90;;;;;;5026804;28;20547;-74
2021/12/14 13:42:35;;;;;;;9.73;3.97;;;8.90;99.90;;;;;;5025617;28;20473;-73
2021/12/14 13:45:05;;;;;;;5.30;3.93;;;8.90;99.90;;;;;;5026153;28;20530;-72
2021/12/14 13:47:31;;;;;;;4.10;3.27;;;8.90;99.90;;;;;;5009392;28;20459;-70
2021/12/14 13:49:59;;;;;;;6.93;3.23;;;8.90;99.90;;;;;;5009973;28;20459;-74
2021/12/14 13:52:25;;;;;;;7.30;4.47;;;8.90;99.90;;;;;;5025867;28;20258;-72
2021/12/14 13:55:12;;;;;;;9.80;5.77;;;8.90;99.90;;;;;;5009884;28;20455;-74
2021/12/14 13:57:42;;;;;;;5.43;4.03;;;8.90;99.90;;;;;;5010159;28;20220;-73
2021/12/14 14:00:12;;;;;;;5.97;4.27;;;8.90;99.90;;;;;;4992356;28;20471;-73